Ana Sayfa
METAR-TAF:

METAR-TAF

Havaalanları :

Camdenton, Missouri, Amerika Birleşik Devletleri

Enlem: 37-58-26N, Boylam: 092-41-28W, yükseklik: 324 m

Güncel hava durumu gözlemi

Rapor saat 11:55 UTC de 30 dakika önce yapıldı.
Rüzgar güneydan 13 kt ve 17 kt'a kadar ani rüzgarlar
Sıcaklık 23°C
Nem 83%
Basınç 1014 hPa
Görüş mesafesi: 16.1 km
Açık gökyüzü

METAR: KOZS 181155Z AUTO 17013G17KT 10SM CLR 23/20 A2995 RMK AO2

Saat: 07:25 (12:25 UTC)


TAF: eksik

4.000'den fazla havaalanı için hava durumu gözlemleri ve tahminleri (METAR ve TAF raporları).

Kullanılabilir istasyonlar harita üzerinde sarı ve kırmızı noktalarla gösterilir.

İstasyonun adını görmek için fareyi noktanın üzerinde gezdirin.

Sonrasında hava gözlem ve tahminlerini görmek için tıklayın.

Haritayı değiştirmek için: yaklaştırmak için siyah artı işaretli yeşil düğmeye ve uzaklaştırmak için de eksi işaretli düğmeye hızla tıklayın; bitişik haritalar için yeşil okları kullanın.


METAR-TAF: